sensor_id;sensor_type;location;lat;lon;timestamp;temperature;humidity
10447;DHT22;70909;45.768;4.884;2023-08-12T00:01:18;29.00;71.40
10447;DHT22;70909;45.768;4.884;2023-08-12T00:03:46;28.90;71.60
10447;DHT22;70909;45.768;4.884;2023-08-12T00:06:13;28.90;71.70
10447;DHT22;70909;45.768;4.884;2023-08-12T00:08:40;28.80;71.50
10447;DHT22;70909;45.768;4.884;2023-08-12T00:11:07;28.80;71.30
10447;DHT22;70909;45.768;4.884;2023-08-12T00:13:34;28.70;71.30
10447;DHT22;70909;45.768;4.884;2023-08-12T00:16:00;28.60;71.10
10447;DHT22;70909;45.768;4.884;2023-08-12T00:18:29;28.60;71.20
10447;DHT22;70909;45.768;4.884;2023-08-12T00:21:06;28.50;71.30
10447;DHT22;70909;45.768;4.884;2023-08-12T00:23:36;28.40;71.30
10447;DHT22;70909;45.768;4.884;2023-08-12T00:26:04;28.40;71.40
10447;DHT22;70909;45.768;4.884;2023-08-12T00:28:31;28.40;71.30
10447;DHT22;70909;45.768;4.884;2023-08-12T00:30:57;28.30;71.40
10447;DHT22;70909;45.768;4.884;2023-08-12T00:33:24;28.30;71.50
10447;DHT22;70909;45.768;4.884;2023-08-12T00:35:52;28.20;71.40
10447;DHT22;70909;45.768;4.884;2023-08-12T00:38:19;28.20;71.50
10447;DHT22;70909;45.768;4.884;2023-08-12T00:40:46;28.20;71.60
10447;DHT22;70909;45.768;4.884;2023-08-12T00:43:13;28.10;71.70
10447;DHT22;70909;45.768;4.884;2023-08-12T00:45:40;28.10;71.70
10447;DHT22;70909;45.768;4.884;2023-08-12T00:48:08;28.10;71.60
10447;DHT22;70909;45.768;4.884;2023-08-12T00:50:36;28.20;71.40
10447;DHT22;70909;45.768;4.884;2023-08-12T00:53:04;28.20;71.40
10447;DHT22;70909;45.768;4.884;2023-08-12T00:55:33;28.20;71.50
10447;DHT22;70909;45.768;4.884;2023-08-12T00:58:02;28.20;71.50
10447;DHT22;70909;45.768;4.884;2023-08-12T01:00:29;28.10;71.40
10447;DHT22;70909;45.768;4.884;2023-08-12T01:02:57;28.10;71.40
10447;DHT22;70909;45.768;4.884;2023-08-12T01:05:24;28.00;71.50
10447;DHT22;70909;45.768;4.884;2023-08-12T01:07:51;27.90;71.50
10447;DHT22;70909;45.768;4.884;2023-08-12T01:10:21;27.90;71.80
10447;DHT22;70909;45.768;4.884;2023-08-12T01:12:52;27.90;71.90
10447;DHT22;70909;45.768;4.884;2023-08-12T01:15:21;27.90;71.80
10447;DHT22;70909;45.768;4.884;2023-08-12T01:17:50;27.90;71.80
10447;DHT22;70909;45.768;4.884;2023-08-12T01:20:20;27.80;71.50
10447;DHT22;70909;45.768;4.884;2023-08-12T01:22:55;27.80;71.60
10447;DHT22;70909;45.768;4.884;2023-08-12T01:25:24;27.70;71.70
10447;DHT22;70909;45.768;4.884;2023-08-12T01:27:51;27.70;71.70
10447;DHT22;70909;45.768;4.884;2023-08-12T01:30:18;27.60;71.80
10447;DHT22;70909;45.768;4.884;2023-08-12T01:32:53;27.60;71.90
10447;DHT22;70909;45.768;4.884;2023-08-12T01:35:23;27.60;71.90
10447;DHT22;70909;45.768;4.884;2023-08-12T01:37:52;27.60;72.00
10447;DHT22;70909;45.768;4.884;2023-08-12T01:40:20;27.50;71.90
10447;DHT22;70909;45.768;4.884;2023-08-12T01:42:49;27.50;72.00
10447;DHT22;70909;45.768;4.884;2023-08-12T01:45:18;27.60;72.00
10447;DHT22;70909;45.768;4.884;2023-08-12T01:47:45;27.50;72.00
10447;DHT22;70909;45.768;4.884;2023-08-12T01:50:12;27.50;72.00
10447;DHT22;70909;45.768;4.884;2023-08-12T01:52:39;27.50;71.90
10447;DHT22;70909;45.768;4.884;2023-08-12T01:55:06;27.50;72.10
10447;DHT22;70909;45.768;4.884;2023-08-12T01:57:33;27.50;72.00
10447;DHT22;70909;45.768;4.884;2023-08-12T02:00:02;27.60;71.80
10447;DHT22;70909;45.768;4.884;2023-08-12T02:02:31;27.60;71.70
10447;DHT22;70909;45.768;4.884;2023-08-12T02:04:57;27.60;71.40
10447;DHT22;70909;45.768;4.884;2023-08-12T02:07:24;27.60;71.30
10447;DHT22;70909;45.768;4.884;2023-08-12T02:09:51;27.60;71.40
10447;DHT22;70909;45.768;4.884;2023-08-12T02:12:18;27.50;71.40
10447;DHT22;70909;45.768;4.884;2023-08-12T02:14:45;27.50;71.50
10447;DHT22;70909;45.768;4.884;2023-08-12T02:17:13;27.60;71.50
10447;DHT22;70909;45.768;4.884;2023-08-12T02:19:40;27.50;71.30
10447;DHT22;70909;45.768;4.884;2023-08-12T02:22:07;27.50;71.30
10447;DHT22;70909;45.768;4.884;2023-08-12T02:24:35;27.50;71.40
10447;DHT22;70909;45.768;4.884;2023-08-12T02:27:03;27.40;71.40
10447;DHT22;70909;45.768;4.884;2023-08-12T02:29:29;27.50;71.50
10447;DHT22;70909;45.768;4.884;2023-08-12T02:31:56;27.50;71.30
10447;DHT22;70909;45.768;4.884;2023-08-12T02:34:24;27.50;71.10
10447;DHT22;70909;45.768;4.884;2023-08-12T02:36:51;27.50;72.00
10447;DHT22;70909;45.768;4.884;2023-08-12T02:39:18;27.40;71.30
10447;DHT22;70909;45.768;4.884;2023-08-12T02:41:45;27.40;71.40
10447;DHT22;70909;45.768;4.884;2023-08-12T02:44:12;27.40;71.40
10447;DHT22;70909;45.768;4.884;2023-08-12T02:46:39;27.40;71.50
10447;DHT22;70909;45.768;4.884;2023-08-12T02:49:06;27.30;71.40
10447;DHT22;70909;45.768;4.884;2023-08-12T02:51:34;27.30;71.50
10447;DHT22;70909;45.768;4.884;2023-08-12T02:54:01;27.30;71.60
10447;DHT22;70909;45.768;4.884;2023-08-12T02:56:28;27.30;71.70
10447;DHT22;70909;45.768;4.884;2023-08-12T02:58:54;27.30;71.80
10447;DHT22;70909;45.768;4.884;2023-08-12T03:01:22;27.30;71.50
10447;DHT22;70909;45.768;4.884;2023-08-12T03:03:49;27.20;71.50
10447;DHT22;70909;45.768;4.884;2023-08-12T03:06:16;27.10;71.60
10447;DHT22;70909;45.768;4.884;2023-08-12T03:08:44;27.10;71.60
10447;DHT22;70909;45.768;4.884;2023-08-12T03:11:11;27.10;71.60
10447;DHT22;70909;45.768;4.884;2023-08-12T03:13:38;27.00;71.80
10447;DHT22;70909;45.768;4.884;2023-08-12T03:16:08;27.00;71.90
10447;DHT22;70909;45.768;4.884;2023-08-12T03:18:37;27.00;72.00
10447;DHT22;70909;45.768;4.884;2023-08-12T03:21:05;26.90;71.80
10447;DHT22;70909;45.768;4.884;2023-08-12T03:23:32;26.90;72.00
10447;DHT22;70909;45.768;4.884;2023-08-12T03:26:00;26.90;71.80
10447;DHT22;70909;45.768;4.884;2023-08-12T03:28:27;26.90;71.80
10447;DHT22;70909;45.768;4.884;2023-08-12T03:30:54;26.80;71.90
10447;DHT22;70909;45.768;4.884;2023-08-12T03:33:21;26.80;71.90
10447;DHT22;70909;45.768;4.884;2023-08-12T03:35:48;26.90;71.80
10447;DHT22;70909;45.768;4.884;2023-08-12T03:38:16;26.80;71.70
10447;DHT22;70909;45.768;4.884;2023-08-12T03:40:43;26.80;71.80
10447;DHT22;70909;45.768;4.884;2023-08-12T03:43:11;26.80;71.90
10447;DHT22;70909;45.768;4.884;2023-08-12T03:45:40;26.90;72.00
10447;DHT22;70909;45.768;4.884;2023-08-12T03:48:07;26.80;71.80
10447;DHT22;70909;45.768;4.884;2023-08-12T03:50:34;26.80;71.80
10447;DHT22;70909;45.768;4.884;2023-08-12T03:53:02;26.80;71.80
10447;DHT22;70909;45.768;4.884;2023-08-12T03:55:30;26.80;71.80
10447;DHT22;70909;45.768;4.884;2023-08-12T03:57:57;26.70;71.80
10447;DHT22;70909;45.768;4.884;2023-08-12T04:00:26;26.70;71.90
10447;DHT22;70909;45.768;4.884;2023-08-12T04:02:53;26.70;72.00
10447;DHT22;70909;45.768;4.884;2023-08-12T04:05:20;26.60;71.90
10447;DHT22;70909;45.768;4.884;2023-08-12T04:07:47;26.70;71.90
10447;DHT22;70909;45.768;4.884;2023-08-12T04:10:13;26.60;71.80
10447;DHT22;70909;45.768;4.884;2023-08-12T04:12:40;26.60;72.00
10447;DHT22;70909;45.768;4.884;2023-08-12T04:15:08;26.60;71.90
10447;DHT22;70909;45.768;4.884;2023-08-12T04:17:38;26.60;71.90
10447;DHT22;70909;45.768;4.884;2023-08-12T04:20:07;26.60;71.80
10447;DHT22;70909;45.768;4.884;2023-08-12T04:22:34;26.60;71.90
10447;DHT22;70909;45.768;4.884;2023-08-12T04:25:01;26.50;71.80
10447;DHT22;70909;45.768;4.884;2023-08-12T04:27:28;26.60;71.80
10447;DHT22;70909;45.768;4.884;2023-08-12T04:29:55;26.50;71.90
10447;DHT22;70909;45.768;4.884;2023-08-12T04:32:22;26.50;72.00
10447;DHT22;70909;45.768;4.884;2023-08-12T04:34:50;26.50;71.90
10447;DHT22;70909;45.768;4.884;2023-08-12T04:37:17;26.50;72.00
10447;DHT22;70909;45.768;4.884;2023-08-12T04:39:44;26.50;71.70
10447;DHT22;70909;45.768;4.884;2023-08-12T04:42:11;26.50;71.80
10447;DHT22;70909;45.768;4.884;2023-08-12T04:44:38;26.40;71.90
10447;DHT22;70909;45.768;4.884;2023-08-12T04:47:05;26.40;72.00
10447;DHT22;70909;45.768;4.884;2023-08-12T04:49:31;26.40;72.30
10447;DHT22;70909;45.768;4.884;2023-08-12T04:52:00;26.30;72.30
10447;DHT22;70909;45.768;4.884;2023-08-12T04:54:27;26.30;72.20
10447;DHT22;70909;45.768;4.884;2023-08-12T04:56:53;26.30;72.40
10447;DHT22;70909;45.768;4.884;2023-08-12T04:59:21;26.30;72.30
10447;DHT22;70909;45.768;4.884;2023-08-12T05:01:48;26.30;72.30
10447;DHT22;70909;45.768;4.884;2023-08-12T05:04:15;26.30;72.30
10447;DHT22;70909;45.768;4.884;2023-08-12T05:06:42;26.30;72.20
10447;DHT22;70909;45.768;4.884;2023-08-12T05:09:10;26.30;72.40
10447;DHT22;70909;45.768;4.884;2023-08-12T05:11:37;26.30;72.30
10447;DHT22;70909;45.768;4.884;2023-08-12T05:14:04;26.30;72.50
10447;DHT22;70909;45.768;4.884;2023-08-12T05:16:31;26.30;72.50
10447;DHT22;70909;45.768;4.884;2023-08-12T05:18:57;26.30;72.30
10447;DHT22;70909;45.768;4.884;2023-08-12T05:21:24;26.20;72.40
10447;DHT22;70909;45.768;4.884;2023-08-12T05:23:52;26.20;72.30
10447;DHT22;70909;45.768;4.884;2023-08-12T05:26:20;26.20;73.20
10447;DHT22;70909;45.768;4.884;2023-08-12T05:28:47;26.20;72.50
10447;DHT22;70909;45.768;4.884;2023-08-12T05:31:13;26.20;72.30
10447;DHT22;70909;45.768;4.884;2023-08-12T05:33:40;26.20;72.50
10447;DHT22;70909;45.768;4.884;2023-08-12T05:36:07;26.10;72.50
10447;DHT22;70909;45.768;4.884;2023-08-12T05:38:34;26.20;72.80
10447;DHT22;70909;45.768;4.884;2023-08-12T05:41:01;26.20;72.60
10447;DHT22;70909;45.768;4.884;2023-08-12T05:43:30;26.30;72.30
10447;DHT22;70909;45.768;4.884;2023-08-12T05:45:57;26.30;72.20
10447;DHT22;70909;45.768;4.884;2023-08-12T05:48:24;26.30;72.20
10447;DHT22;70909;45.768;4.884;2023-08-12T05:50:51;26.30;72.30
10447;DHT22;70909;45.768;4.884;2023-08-12T05:53:18;26.30;72.40
10447;DHT22;70909;45.768;4.884;2023-08-12T05:55:44;26.30;72.30
10447;DHT22;70909;45.768;4.884;2023-08-12T05:58:11;26.40;72.30
10447;DHT22;70909;45.768;4.884;2023-08-12T06:00:39;26.30;72.40
10447;DHT22;70909;45.768;4.884;2023-08-12T06:03:10;26.30;72.30
10447;DHT22;70909;45.768;4.884;2023-08-12T06:05:37;26.30;72.50
10447;DHT22;70909;45.768;4.884;2023-08-12T06:08:04;26.40;72.60
10447;DHT22;70909;45.768;4.884;2023-08-12T06:10:32;26.40;72.50
10447;DHT22;70909;45.768;4.884;2023-08-12T06:12:59;26.40;72.40
10447;DHT22;70909;45.768;4.884;2023-08-12T06:15:26;26.50;72.30
10447;DHT22;70909;45.768;4.884;2023-08-12T06:17:54;26.60;72.30
10447;DHT22;70909;45.768;4.884;2023-08-12T06:20:22;26.60;72.10
10447;DHT22;70909;45.768;4.884;2023-08-12T06:22:49;26.60;72.20
10447;DHT22;70909;45.768;4.884;2023-08-12T06:25:16;26.70;72.00
10447;DHT22;70909;45.768;4.884;2023-08-12T06:27:43;26.70;71.80
10447;DHT22;70909;45.768;4.884;2023-08-12T06:30:11;26.80;71.80
10447;DHT22;70909;45.768;4.884;2023-08-12T06:32:38;26.90;71.70
10447;DHT22;70909;45.768;4.884;2023-08-12T06:35:08;27.00;71.60
10447;DHT22;70909;45.768;4.884;2023-08-12T06:37:34;27.10;71.60
10447;DHT22;70909;45.768;4.884;2023-08-12T06:40:02;27.20;71.60
10447;DHT22;70909;45.768;4.884;2023-08-12T06:42:29;27.20;71.10
10447;DHT22;70909;45.768;4.884;2023-08-12T06:44:58;27.30;71.10
10447;DHT22;70909;45.768;4.884;2023-08-12T06:47:25;27.30;70.50
10447;DHT22;70909;45.768;4.884;2023-08-12T06:49:52;27.40;70.20
10447;DHT22;70909;45.768;4.884;2023-08-12T06:52:21;27.50;70.20
10447;DHT22;70909;45.768;4.884;2023-08-12T06:54:48;27.40;70.00
10447;DHT22;70909;45.768;4.884;2023-08-12T06:57:15;27.50;70.30
10447;DHT22;70909;45.768;4.884;2023-08-12T06:59:42;27.50;70.10
10447;DHT22;70909;45.768;4.884;2023-08-12T07:02:09;27.50;70.00
10447;DHT22;70909;45.768;4.884;2023-08-12T07:04:35;27.60;70.20
10447;DHT22;70909;45.768;4.884;2023-08-12T07:07:02;27.60;69.90
10447;DHT22;70909;45.768;4.884;2023-08-12T07:09:31;27.70;69.90
10447;DHT22;70909;45.768;4.884;2023-08-12T07:11:57;27.80;69.70
10447;DHT22;70909;45.768;4.884;2023-08-12T07:14:24;27.80;69.70
10447;DHT22;70909;45.768;4.884;2023-08-12T07:16:51;27.80;69.80
10447;DHT22;70909;45.768;4.884;2023-08-12T07:19:18;27.90;69.50
10447;DHT22;70909;45.768;4.884;2023-08-12T07:21:45;28.00;69.40
10447;DHT22;70909;45.768;4.884;2023-08-12T07:24:12;28.00;69.30
10447;DHT22;70909;45.768;4.884;2023-08-12T07:26:40;28.10;69.40
10447;DHT22;70909;45.768;4.884;2023-08-12T07:29:07;28.30;69.10
10447;DHT22;70909;45.768;4.884;2023-08-12T07:31:33;28.40;69.20
10447;DHT22;70909;45.768;4.884;2023-08-12T07:34:00;28.50;69.00
10447;DHT22;70909;45.768;4.884;2023-08-12T07:36:27;28.70;68.70
10447;DHT22;70909;45.768;4.884;2023-08-12T07:38:54;28.80;68.60
10447;DHT22;70909;45.768;4.884;2023-08-12T07:41:21;29.40;68.50
10447;DHT22;70909;45.768;4.884;2023-08-12T07:43:49;31.20;66.90
10447;DHT22;70909;45.768;4.884;2023-08-12T07:46:16;33.40;64.40
10447;DHT22;70909;45.768;4.884;2023-08-12T07:48:43;35.30;61.30
10447;DHT22;70909;45.768;4.884;2023-08-12T07:51:10;36.90;60.30
10447;DHT22;70909;45.768;4.884;2023-08-12T07:53:37;38.20;58.20
10447;DHT22;70909;45.768;4.884;2023-08-12T07:56:04;39.20;55.60
10447;DHT22;70909;45.768;4.884;2023-08-12T07:58:31;40.00;54.00
10447;DHT22;70909;45.768;4.884;2023-08-12T08:00:59;40.60;53.20
10447;DHT22;70909;45.768;4.884;2023-08-12T08:03:26;41.10;52.50
10447;DHT22;70909;45.768;4.884;2023-08-12T08:05:53;41.60;52.70
10447;DHT22;70909;45.768;4.884;2023-08-12T08:08:20;42.30;51.70
10447;DHT22;70909;45.768;4.884;2023-08-12T08:10:46;42.90;50.80
10447;DHT22;70909;45.768;4.884;2023-08-12T08:13:13;43.20;49.40
10447;DHT22;70909;45.768;4.884;2023-08-12T08:15:40;42.80;49.20
10447;DHT22;70909;45.768;4.884;2023-08-12T08:18:09;42.00;49.80
10447;DHT22;70909;45.768;4.884;2023-08-12T08:20:35;40.90;51.00
10447;DHT22;70909;45.768;4.884;2023-08-12T08:23:02;39.70;51.80
10447;DHT22;70909;45.768;4.884;2023-08-12T08:25:29;38.40;52.80
10447;DHT22;70909;45.768;4.884;2023-08-12T08:27:57;37.20;54.00
10447;DHT22;70909;45.768;4.884;2023-08-12T08:30:24;36.40;55.10
10447;DHT22;70909;45.768;4.884;2023-08-12T08:32:51;35.70;55.90
10447;DHT22;70909;45.768;4.884;2023-08-12T08:35:20;35.30;56.80
10447;DHT22;70909;45.768;4.884;2023-08-12T08:37:47;35.00;57.40
10447;DHT22;70909;45.768;4.884;2023-08-12T08:40:14;34.70;57.70
10447;DHT22;70909;45.768;4.884;2023-08-12T08:42:42;34.50;58.20
10447;DHT22;70909;45.768;4.884;2023-08-12T08:45:12;34.40;58.30
10447;DHT22;70909;45.768;4.884;2023-08-12T08:47:39;34.30;58.50
10447;DHT22;70909;45.768;4.884;2023-08-12T08:50:08;34.10;58.80
10447;DHT22;70909;45.768;4.884;2023-08-12T08:52:37;34.10;58.80
10447;DHT22;70909;45.768;4.884;2023-08-12T08:55:05;34.10;58.80
10447;DHT22;70909;45.768;4.884;2023-08-12T08:57:32;34.20;58.60
10447;DHT22;70909;45.768;4.884;2023-08-12T08:59:59;34.20;58.70
10447;DHT22;70909;45.768;4.884;2023-08-12T09:02:26;34.10;58.90
10447;DHT22;70909;45.768;4.884;2023-08-12T09:04:53;34.10;59.10
10447;DHT22;70909;45.768;4.884;2023-08-12T09:07:21;34.10;59.30
10447;DHT22;70909;45.768;4.884;2023-08-12T09:09:52;34.20;59.30
10447;DHT22;70909;45.768;4.884;2023-08-12T09:12:20;34.20;59.30
10447;DHT22;70909;45.768;4.884;2023-08-12T09:14:47;34.30;59.30
10447;DHT22;70909;45.768;4.884;2023-08-12T09:17:14;34.20;59.40
10447;DHT22;70909;45.768;4.884;2023-08-12T09:19:41;34.00;59.70
10447;DHT22;70909;45.768;4.884;2023-08-12T09:22:09;33.70;60.30
10447;DHT22;70909;45.768;4.884;2023-08-12T09:24:36;33.40;60.80
10447;DHT22;70909;45.768;4.884;2023-08-12T09:27:04;33.10;61.30
10447;DHT22;70909;45.768;4.884;2023-08-12T09:29:32;33.00;61.60
10447;DHT22;70909;45.768;4.884;2023-08-12T09:32:05;32.80;61.70
10447;DHT22;70909;45.768;4.884;2023-08-12T09:34:33;32.80;62.30
10447;DHT22;70909;45.768;4.884;2023-08-12T09:37:00;32.80;62.40
10447;DHT22;70909;45.768;4.884;2023-08-12T09:39:28;32.70;62.60
10447;DHT22;70909;45.768;4.884;2023-08-12T09:41:56;32.60;62.70
10447;DHT22;70909;45.768;4.884;2023-08-12T09:44:25;32.50;62.70
10447;DHT22;70909;45.768;4.884;2023-08-12T09:46:56;32.50;62.90
10447;DHT22;70909;45.768;4.884;2023-08-12T09:49:24;32.50;63.20
10447;DHT22;70909;45.768;4.884;2023-08-12T09:51:51;32.50;63.30
10447;DHT22;70909;45.768;4.884;2023-08-12T09:54:19;32.60;63.40
10447;DHT22;70909;45.768;4.884;2023-08-12T09:56:48;32.60;63.40
10447;DHT22;70909;45.768;4.884;2023-08-12T09:59:18;32.70;63.60
10447;DHT22;70909;45.768;4.884;2023-08-12T10:01:48;32.80;63.20
10447;DHT22;70909;45.768;4.884;2023-08-12T10:04:17;33.00;64.10
10447;DHT22;70909;45.768;4.884;2023-08-12T10:06:47;33.30;63.10
10447;DHT22;70909;45.768;4.884;2023-08-12T10:09:15;33.50;62.60
10447;DHT22;70909;45.768;4.884;2023-08-12T10:11:43;33.70;62.00
10447;DHT22;70909;45.768;4.884;2023-08-12T10:14:10;33.70;62.10
10447;DHT22;70909;45.768;4.884;2023-08-12T10:16:37;33.60;62.40
10447;DHT22;70909;45.768;4.884;2023-08-12T10:19:06;33.60;62.50
10447;DHT22;70909;45.768;4.884;2023-08-12T10:21:34;33.50;62.20
10447;DHT22;70909;45.768;4.884;2023-08-12T10:24:02;33.40;62.60
10447;DHT22;70909;45.768;4.884;2023-08-12T10:26:30;33.30;62.80
10447;DHT22;70909;45.768;4.884;2023-08-12T10:28:59;33.30;63.00
10447;DHT22;70909;45.768;4.884;2023-08-12T10:31:27;33.20;63.30
10447;DHT22;70909;45.768;4.884;2023-08-12T10:33:56;33.20;63.60
10447;DHT22;70909;45.768;4.884;2023-08-12T10:36:26;33.20;64.00
10447;DHT22;70909;45.768;4.884;2023-08-12T10:38:53;33.20;63.00
10447;DHT22;70909;45.768;4.884;2023-08-12T10:41:20;33.20;63.10
10447;DHT22;70909;45.768;4.884;2023-08-12T10:43:52;33.10;63.30
10447;DHT22;70909;45.768;4.884;2023-08-12T10:46:22;33.00;63.50
10447;DHT22;70909;45.768;4.884;2023-08-12T10:48:56;32.90;63.70
10447;DHT22;70909;45.768;4.884;2023-08-12T10:54:21;32.90;64.00
10447;DHT22;70909;45.768;4.884;2023-08-12T10:57:07;32.70;64.40
10447;DHT22;70909;45.768;4.884;2023-08-12T10:59:53;32.60;64.50
10447;DHT22;70909;45.768;4.884;2023-08-12T11:02:27;32.40;64.50
10447;DHT22;70909;45.768;4.884;2023-08-12T11:04:56;32.30;64.80
10447;DHT22;70909;45.768;4.884;2023-08-12T11:07:29;32.20;65.20
10447;DHT22;70909;45.768;4.884;2023-08-12T11:10:04;32.10;66.00
10447;DHT22;70909;45.768;4.884;2023-08-12T11:12:32;32.20;65.80
10447;DHT22;70909;45.768;4.884;2023-08-12T11:15:01;32.20;65.80
10447;DHT22;70909;45.768;4.884;2023-08-12T11:17:32;32.20;66.60
10447;DHT22;70909;45.768;4.884;2023-08-12T11:19:59;32.10;65.50
10447;DHT22;70909;45.768;4.884;2023-08-12T11:22:27;32.10;65.60
10447;DHT22;70909;45.768;4.884;2023-08-12T11:24:54;32.10;65.70
10447;DHT22;70909;45.768;4.884;2023-08-12T11:27:23;32.10;65.90
10447;DHT22;70909;45.768;4.884;2023-08-12T11:29:50;32.10;65.90
10447;DHT22;70909;45.768;4.884;2023-08-12T11:32:18;32.10;66.90
10447;DHT22;70909;45.768;4.884;2023-08-12T11:34:46;32.10;67.70
10447;DHT22;70909;45.768;4.884;2023-08-12T11:37:13;32.00;67.60
10447;DHT22;70909;45.768;4.884;2023-08-12T11:39:40;32.00;67.70
10447;DHT22;70909;45.768;4.884;2023-08-12T11:42:06;31.90;67.80
10447;DHT22;70909;45.768;4.884;2023-08-12T11:44:35;32.00;67.40
10447;DHT22;70909;45.768;4.884;2023-08-12T11:47:01;32.00;66.70
10447;DHT22;70909;45.768;4.884;2023-08-12T11:49:28;32.10;66.40
10447;DHT22;70909;45.768;4.884;2023-08-12T11:51:55;32.20;66.10
10447;DHT22;70909;45.768;4.884;2023-08-12T11:54:22;32.40;66.00
10447;DHT22;70909;45.768;4.884;2023-08-12T11:56:49;32.60;65.50
10447;DHT22;70909;45.768;4.884;2023-08-12T11:59:16;32.70;65.10
10447;DHT22;70909;45.768;4.884;2023-08-12T12:01:49;32.90;64.80
10447;DHT22;70909;45.768;4.884;2023-08-12T12:04:16;33.10;64.30
10447;DHT22;70909;45.768;4.884;2023-08-12T12:06:45;33.20;63.80
10447;DHT22;70909;45.768;4.884;2023-08-12T12:09:13;33.30;64.00
10447;DHT22;70909;45.768;4.884;2023-08-12T12:11:42;33.50;64.10
10447;DHT22;70909;45.768;4.884;2023-08-12T12:14:10;33.50;63.70
10447;DHT22;70909;45.768;4.884;2023-08-12T12:16:38;33.70;63.70
10447;DHT22;70909;45.768;4.884;2023-08-12T12:19:15;33.70;62.60
10447;DHT22;70909;45.768;4.884;2023-08-12T12:21:42;33.90;62.40
10447;DHT22;70909;45.768;4.884;2023-08-12T12:24:09;33.90;62.50
10447;DHT22;70909;45.768;4.884;2023-08-12T12:26:37;33.90;61.90
10447;DHT22;70909;45.768;4.884;2023-08-12T12:29:04;33.90;61.80
10447;DHT22;70909;45.768;4.884;2023-08-12T12:31:32;33.90;61.70
10447;DHT22;70909;45.768;4.884;2023-08-12T12:34:00;33.90;61.90
10447;DHT22;70909;45.768;4.884;2023-08-12T12:36:28;33.80;62.00
10447;DHT22;70909;45.768;4.884;2023-08-12T12:38:55;33.80;62.00
10447;DHT22;70909;45.768;4.884;2023-08-12T12:41:22;33.80;61.80
10447;DHT22;70909;45.768;4.884;2023-08-12T12:43:49;33.60;62.00
10447;DHT22;70909;45.768;4.884;2023-08-12T12:46:16;33.60;62.40
10447;DHT22;70909;45.768;4.884;2023-08-12T12:48:43;33.50;62.60
10447;DHT22;70909;45.768;4.884;2023-08-12T12:51:10;33.60;62.80
10447;DHT22;70909;45.768;4.884;2023-08-12T12:53:39;33.60;62.60
10447;DHT22;70909;45.768;4.884;2023-08-12T12:56:06;33.70;62.40
10447;DHT22;70909;45.768;4.884;2023-08-12T12:58:33;33.80;62.60
10447;DHT22;70909;45.768;4.884;2023-08-12T13:01:01;33.80;62.30
10447;DHT22;70909;45.768;4.884;2023-08-12T13:03:29;33.90;62.40
10447;DHT22;70909;45.768;4.884;2023-08-12T13:05:56;33.90;62.30
10447;DHT22;70909;45.768;4.884;2023-08-12T13:08:23;34.10;61.90
10447;DHT22;70909;45.768;4.884;2023-08-12T13:10:51;34.20;61.90
10447;DHT22;70909;45.768;4.884;2023-08-12T13:13:18;34.30;61.30
10447;DHT22;70909;45.768;4.884;2023-08-12T13:15:45;34.40;61.10
10447;DHT22;70909;45.768;4.884;2023-08-12T13:18:13;34.40;60.50
10447;DHT22;70909;45.768;4.884;2023-08-12T13:20:40;34.50;60.60
10447;DHT22;70909;45.768;4.884;2023-08-12T13:23:06;34.50;60.60
10447;DHT22;70909;45.768;4.884;2023-08-12T13:25:34;34.50;60.50
10447;DHT22;70909;45.768;4.884;2023-08-12T13:28:03;34.40;60.60
10447;DHT22;70909;45.768;4.884;2023-08-12T13:30:30;34.30;60.40
10447;DHT22;70909;45.768;4.884;2023-08-12T13:32:57;34.30;60.10
10447;DHT22;70909;45.768;4.884;2023-08-12T13:35:24;34.30;60.30
10447;DHT22;70909;45.768;4.884;2023-08-12T13:37:51;34.30;60.30
10447;DHT22;70909;45.768;4.884;2023-08-12T13:40:18;34.30;60.60
10447;DHT22;70909;45.768;4.884;2023-08-12T13:42:44;34.20;60.70
10447;DHT22;70909;45.768;4.884;2023-08-12T13:45:14;34.10;60.80
10447;DHT22;70909;45.768;4.884;2023-08-12T13:47:40;34.10;60.80
10447;DHT22;70909;45.768;4.884;2023-08-12T13:50:08;34.20;60.60
10447;DHT22;70909;45.768;4.884;2023-08-12T13:52:35;34.10;60.50
10447;DHT22;70909;45.768;4.884;2023-08-12T13:55:02;34.20;60.50
10447;DHT22;70909;45.768;4.884;2023-08-12T13:57:29;34.20;60.60
10447;DHT22;70909;45.768;4.884;2023-08-12T13:59:56;34.10;60.70
10447;DHT22;70909;45.768;4.884;2023-08-12T14:02:25;34.10;60.80
10447;DHT22;70909;45.768;4.884;2023-08-12T14:04:51;34.10;60.60
10447;DHT22;70909;45.768;4.884;2023-08-12T14:07:19;34.00;60.70
10447;DHT22;70909;45.768;4.884;2023-08-12T14:09:47;34.00;60.80
10447;DHT22;70909;45.768;4.884;2023-08-12T14:12:14;34.10;60.70
10447;DHT22;70909;45.768;4.884;2023-08-12T14:14:41;34.10;60.80
10447;DHT22;70909;45.768;4.884;2023-08-12T14:17:08;34.10;60.80
10447;DHT22;70909;45.768;4.884;2023-08-12T14:19:40;34.10;60.60
10447;DHT22;70909;45.768;4.884;2023-08-12T14:22:08;34.10;60.60
10447;DHT22;70909;45.768;4.884;2023-08-12T14:24:34;34.10;60.40
10447;DHT22;70909;45.768;4.884;2023-08-12T14:27:01;34.10;60.50
10447;DHT22;70909;45.768;4.884;2023-08-12T14:29:29;34.00;60.60
10447;DHT22;70909;45.768;4.884;2023-08-12T14:31:56;34.00;60.80
10447;DHT22;70909;45.768;4.884;2023-08-12T14:34:23;34.00;60.70
10447;DHT22;70909;45.768;4.884;2023-08-12T14:36:51;34.10;60.80
10447;DHT22;70909;45.768;4.884;2023-08-12T14:39:18;34.20;60.60
10447;DHT22;70909;45.768;4.884;2023-08-12T14:41:46;34.20;60.50
10447;DHT22;70909;45.768;4.884;2023-08-12T14:44:13;34.20;60.10
10447;DHT22;70909;45.768;4.884;2023-08-12T14:46:40;34.10;60.30
10447;DHT22;70909;45.768;4.884;2023-08-12T14:49:07;34.10;60.10
10447;DHT22;70909;45.768;4.884;2023-08-12T14:51:34;34.00;60.20
10447;DHT22;70909;45.768;4.884;2023-08-12T14:54:02;34.00;60.40
10447;DHT22;70909;45.768;4.884;2023-08-12T14:56:29;33.90;60.20
10447;DHT22;70909;45.768;4.884;2023-08-12T14:58:56;34.00;59.90
10447;DHT22;70909;45.768;4.884;2023-08-12T15:01:23;33.90;60.00
10447;DHT22;70909;45.768;4.884;2023-08-12T15:03:52;33.90;60.00
10447;DHT22;70909;45.768;4.884;2023-08-12T15:06:20;33.80;60.10
10447;DHT22;70909;45.768;4.884;2023-08-12T15:08:47;33.70;60.30
10447;DHT22;70909;45.768;4.884;2023-08-12T15:11:15;33.70;60.40
10447;DHT22;70909;45.768;4.884;2023-08-12T15:13:42;33.80;60.40
10447;DHT22;70909;45.768;4.884;2023-08-12T15:16:09;33.80;60.40
10447;DHT22;70909;45.768;4.884;2023-08-12T15:18:37;33.90;60.30
10447;DHT22;70909;45.768;4.884;2023-08-12T15:21:03;34.10;59.80
10447;DHT22;70909;45.768;4.884;2023-08-12T15:23:30;34.10;59.70
10447;DHT22;70909;45.768;4.884;2023-08-12T15:25:58;34.10;59.50
10447;DHT22;70909;45.768;4.884;2023-08-12T15:28:26;34.10;59.70
10447;DHT22;70909;45.768;4.884;2023-08-12T15:30:53;34.20;59.40
10447;DHT22;70909;45.768;4.884;2023-08-12T15:33:20;34.10;59.20
10447;DHT22;70909;45.768;4.884;2023-08-12T15:35:47;34.10;59.10